createdAt,value
2023-04-03T00:14:07.372Z,101275.66
2023-04-03T00:28:57.822Z,101275.59
2023-04-03T00:43:48.239Z,101283.55
2023-04-03T00:58:38.500Z,101274.36
2023-04-03T01:13:27.916Z,101272.73
2023-04-03T01:28:23.175Z,101283.64
2023-04-03T01:43:16.569Z,101289.48
2023-04-03T01:58:06.435Z,101295.31
2023-04-03T02:12:55.793Z,101293.28
2023-04-03T02:27:47.206Z,101292.46
2023-04-03T02:42:36.143Z,101278.04
2023-04-03T02:57:25.836Z,101283.41
2023-04-03T03:12:16.210Z,101278.61
2023-04-03T03:27:05.767Z,101276.88
2023-04-03T03:41:55.184Z,101282.59
2023-04-03T03:56:44.941Z,101270.80
2023-04-03T04:26:24.777Z,101293.09
2023-04-03T04:56:07.194Z,101294.37
2023-04-03T05:10:57.447Z,101304.89
2023-04-03T05:25:46.930Z,101322.02
2023-04-03T05:40:35.567Z,101342.56
2023-04-03T05:55:25.259Z,101352.17
2023-04-03T06:25:05.416Z,101364.04
2023-04-03T08:09:01.395Z,101412.66
2023-04-03T08:23:52.864Z,101418.89
2023-04-03T08:38:43.075Z,101411.63
2023-04-03T08:53:33.741Z,101409.83
2023-04-03T09:08:41.555Z,101407.16
2023-04-03T09:23:47.782Z,101409.77
2023-04-03T09:38:43.392Z,101404.49
2023-04-03T09:53:39.711Z,101401.31
2023-04-03T10:08:34.252Z,101383.20
2023-04-03T10:23:28.902Z,101385.08
2023-04-03T10:38:33.520Z,101384.94
2023-04-03T10:53:31.002Z,101377.38
2023-04-03T11:08:26.785Z,101374.44
2023-04-03T11:23:49.042Z,101367.27
2023-04-03T11:38:29.875Z,101368.87
2023-04-03T11:53:31.913Z,101360.13
2023-04-03T12:08:34.944Z,101346.20
2023-04-03T12:23:34.233Z,101334.27
2023-04-03T12:38:47.647Z,101332.52
2023-04-03T12:53:42.757Z,101324.80
2023-04-03T13:08:33.124Z,101326.23
2023-04-03T13:23:26.781Z,101332.16
2023-04-03T13:38:19.552Z,101326.02
2023-04-03T13:53:13.006Z,101309.59
2023-04-03T14:08:04.364Z,101312.55
2023-04-03T14:22:53.907Z,101300.36
2023-04-03T14:37:45.012Z,101295.17
2023-04-03T14:52:36.930Z,101280.63
2023-04-03T15:07:25.584Z,101277.16
2023-04-03T15:22:21.049Z,101267.70
2023-04-03T15:37:08.797Z,101285.08
2023-04-03T15:51:59.730Z,101279.41
2023-04-03T16:06:50.590Z,101270.96
2023-04-03T16:21:42.074Z,101266.66
2023-04-03T16:36:31.931Z,101259.61
2023-04-03T16:51:21.616Z,101270.18
2023-04-03T17:06:11.023Z,101265.06
2023-04-03T17:21:03.753Z,101270.11
2023-04-03T17:35:53.934Z,101279.82
2023-04-03T17:50:44.069Z,101280.97
2023-04-03T18:05:34.080Z,101289.56
2023-04-03T18:20:23.803Z,101287.22
2023-04-03T18:35:12.789Z,101296.81
2023-04-03T18:50:04.206Z,101301.93
2023-04-03T19:19:54.013Z,101310.23
2023-04-03T20:19:18.973Z,101326.17
2023-04-03T20:34:08.002Z,101319.84
2023-04-03T20:48:57.288Z,101327.42
2023-04-03T21:03:46.732Z,101327.48
2023-04-03T21:18:41.853Z,101320.97
2023-04-03T21:33:35.077Z,101327.61
2023-04-03T21:48:24.918Z,101344.27
2023-04-03T22:03:14.116Z,101339.05
2023-04-03T22:18:03.888Z,101327.23
2023-04-03T22:32:53.261Z,101339.09
2023-04-03T22:47:43.389Z,101326.83
2023-04-03T23:02:32.994Z,101330.31
2023-04-03T23:17:22.495Z,101332.08
2023-04-03T23:32:11.313Z,101327.67
2023-04-03T23:47:01.442Z,101323.27
